Aviation Digital Data Service (ADDS)

Output produced by METARs form (2029 UTC 21 September 2021)
found at http://aviationweather.gov/metar/data/
 
METAR text: KRNT 211953Z 34008KT 9SM CLR 21/09 A3013 RMK AO2 SLP206 T02110094
Conditions at: KRNT (RENTON , WA, US) observed 1953 UTC 21 September 2021
Temperature: 21.1°C (70°F)
Dewpoint: 9.4°C (49°F) [RH = 47%]
Pressure (altimeter): 30.13 inches Hg (1020.4 mb)
[Sea-level pressure: 1020.6 mb]
Winds: from the NNW (340 degrees) at 9 MPH (8 knots; 4.1 m/s)
Visibility: 9 miles (14 km)
Ceiling: at least 12,000 feet AGL
Clouds: sky clear below 12,000 feet AGL
Weather: no significant weather observed at this time

METAR text: KRNT 211853Z 34005KT 6SM CLR 18/09 A3016 RMK AO2 SLP218 T01830094
Conditions at: KRNT (RENTON , WA, US) observed 1853 UTC 21 September 2021
Temperature: 18.3°C (65°F)
Dewpoint: 9.4°C (49°F) [RH = 56%]
Pressure (altimeter): 30.16 inches Hg (1021.4 mb)
[Sea-level pressure: 1021.8 mb]
Winds: from the NNW (340 degrees) at 6 MPH (5 knots; 2.6 m/s)
Visibility: 6 miles (10 km)
Ceiling: at least 12,000 feet AGL
Clouds: sky clear below 12,000 feet AGL
Weather: no significant weather observed at this time